sensor_id;sensor_type;location;lat;lon;timestamp;P1;durP1;ratioP1;P2;durP2;ratioP2
35442;SDS011;21561;55.654;37.592;2022-12-29T00:00:54;8.85;;;2.25;;
35442;SDS011;21561;55.654;37.592;2022-12-29T00:03:21;8.43;;;1.63;;
35442;SDS011;21561;55.654;37.592;2022-12-29T00:05:53;8.43;;;2.00;;
35442;SDS011;21561;55.654;37.592;2022-12-29T00:08:21;10.07;;;1.75;;
35442;SDS011;21561;55.654;37.592;2022-12-29T00:11:09;5.97;;;1.50;;
35442;SDS011;21561;55.654;37.592;2022-12-29T00:13:42;8.10;;;1.48;;
35442;SDS011;21561;55.654;37.592;2022-12-29T00:16:28;7.63;;;1.67;;
35442;SDS011;21561;55.654;37.592;2022-12-29T00:18:56;8.30;;;1.58;;
35442;SDS011;21561;55.654;37.592;2022-12-29T00:21:24;5.20;;;1.75;;
35442;SDS011;21561;55.654;37.592;2022-12-29T00:24:27;4.95;;;1.40;;
35442;SDS011;21561;55.654;37.592;2022-12-29T00:29:50;5.75;;;1.17;;
35442;SDS011;21561;55.654;37.592;2022-12-29T00:32:36;4.63;;;1.08;;
35442;SDS011;21561;55.654;37.592;2022-12-29T00:38:06;8.68;;;1.67;;
35442;SDS011;21561;55.654;37.592;2022-12-29T00:40:54;8.10;;;1.25;;
35442;SDS011;21561;55.654;37.592;2022-12-29T00:43:39;8.60;;;2.78;;
35442;SDS011;21561;55.654;37.592;2022-12-29T00:46:24;5.63;;;1.52;;
35442;SDS011;21561;55.654;37.592;2022-12-29T00:48:51;5.00;;;1.27;;
35442;SDS011;21561;55.654;37.592;2022-12-29T00:51:37;7.82;;;1.80;;
35442;SDS011;21561;55.654;37.592;2022-12-29T00:54:03;9.40;;;1.50;;
35442;SDS011;21561;55.654;37.592;2022-12-29T00:56:30;8.88;;;1.80;;
35442;SDS011;21561;55.654;37.592;2022-12-29T00:59:00;5.60;;;1.38;;
35442;SDS011;21561;55.654;37.592;2022-12-29T01:01:28;8.50;;;1.58;;
35442;SDS011;21561;55.654;37.592;2022-12-29T01:03:56;10.85;;;1.70;;
35442;SDS011;21561;55.654;37.592;2022-12-29T01:06:29;7.93;;;1.70;;
35442;SDS011;21561;55.654;37.592;2022-12-29T01:08:56;7.50;;;2.10;;
35442;SDS011;21561;55.654;37.592;2022-12-29T01:11:42;6.53;;;1.67;;
35442;SDS011;21561;55.654;37.592;2022-12-29T01:14:08;6.70;;;1.55;;
35442;SDS011;21561;55.654;37.592;2022-12-29T01:16:35;6.20;;;1.52;;
35442;SDS011;21561;55.654;37.592;2022-12-29T01:19:03;8.75;;;2.17;;
35442;SDS011;21561;55.654;37.592;2022-12-29T01:21:30;7.90;;;1.50;;
35442;SDS011;21561;55.654;37.592;2022-12-29T01:23:57;9.82;;;1.80;;
35442;SDS011;21561;55.654;37.592;2022-12-29T01:26:24;9.45;;;1.77;;
35442;SDS011;21561;55.654;37.592;2022-12-29T01:28:50;9.98;;;1.70;;
35442;SDS011;21561;55.654;37.592;2022-12-29T01:31:17;7.97;;;1.60;;
35442;SDS011;21561;55.654;37.592;2022-12-29T01:33:44;9.18;;;2.95;;
35442;SDS011;21561;55.654;37.592;2022-12-29T01:36:13;10.20;;;1.80;;
35442;SDS011;21561;55.654;37.592;2022-12-29T01:38:43;8.05;;;1.60;;
35442;SDS011;21561;55.654;37.592;2022-12-29T01:41:11;9.98;;;1.77;;
35442;SDS011;21561;55.654;37.592;2022-12-29T01:51:42;9.32;;;1.65;;
35442;SDS011;21561;55.654;37.592;2022-12-29T01:54:13;9.88;;;1.65;;
35442;SDS011;21561;55.654;37.592;2022-12-29T01:57:03;8.40;;;1.95;;
35442;SDS011;21561;55.654;37.592;2022-12-29T01:59:36;8.85;;;1.88;;
35442;SDS011;21561;55.654;37.592;2022-12-29T02:02:06;9.85;;;2.58;;
35442;SDS011;21561;55.654;37.592;2022-12-29T02:04:34;7.68;;;1.95;;
35442;SDS011;21561;55.654;37.592;2022-12-29T02:07:07;8.73;;;2.13;;
35442;SDS011;21561;55.654;37.592;2022-12-29T02:09:40;10.35;;;2.20;;
35442;SDS011;21561;55.654;37.592;2022-12-29T02:12:09;14.20;;;2.53;;
35442;SDS011;21561;55.654;37.592;2022-12-29T02:14:36;12.65;;;2.28;;
35442;SDS011;21561;55.654;37.592;2022-12-29T02:31:45;10.95;;;1.98;;
35442;SDS011;21561;55.654;37.592;2022-12-29T02:39:38;10.25;;;2.17;;
35442;SDS011;21561;55.654;37.592;2022-12-29T02:45:03;16.08;;;2.50;;
35442;SDS011;21561;55.654;37.592;2022-12-29T02:50:41;12.25;;;2.20;;
35442;SDS011;21561;55.654;37.592;2022-12-29T02:53:13;14.40;;;2.30;;
35442;SDS011;21561;55.654;37.592;2022-12-29T02:56:03;12.23;;;2.43;;
35442;SDS011;21561;55.654;37.592;2022-12-29T02:58:30;13.82;;;3.30;;
35442;SDS011;21561;55.654;37.592;2022-12-29T03:01:08;13.40;;;2.38;;
35442;SDS011;21561;55.654;37.592;2022-12-29T03:04:01;12.63;;;2.40;;
35442;SDS011;21561;55.654;37.592;2022-12-29T03:06:35;13.30;;;2.30;;
35442;SDS011;21561;55.654;37.592;2022-12-29T03:12:14;16.48;;;2.85;;
35442;SDS011;21561;55.654;37.592;2022-12-29T03:17:59;11.45;;;2.35;;
35442;SDS011;21561;55.654;37.592;2022-12-29T03:20:32;8.57;;;2.38;;
35442;SDS011;21561;55.654;37.592;2022-12-29T03:23:08;17.27;;;2.63;;
35442;SDS011;21561;55.654;37.592;2022-12-29T03:25:38;8.43;;;2.17;;
35442;SDS011;21561;55.654;37.592;2022-12-29T03:28:11;13.93;;;2.38;;
35442;SDS011;21561;55.654;37.592;2022-12-29T03:30:43;11.52;;;2.30;;
35442;SDS011;21561;55.654;37.592;2022-12-29T03:33:13;9.13;;;2.10;;
35442;SDS011;21561;55.654;37.592;2022-12-29T03:35:44;12.52;;;2.38;;
35442;SDS011;21561;55.654;37.592;2022-12-29T03:40:58;17.75;;;2.67;;
35442;SDS011;21561;55.654;37.592;2022-12-29T03:43:28;14.88;;;2.40;;
35442;SDS011;21561;55.654;37.592;2022-12-29T03:45:56;10.40;;;2.45;;
35442;SDS011;21561;55.654;37.592;2022-12-29T03:48:22;12.93;;;2.55;;
35442;SDS011;21561;55.654;37.592;2022-12-29T03:50:49;15.68;;;2.35;;
35442;SDS011;21561;55.654;37.592;2022-12-29T03:53:16;11.43;;;2.25;;
35442;SDS011;21561;55.654;37.592;2022-12-29T03:55:43;10.60;;;2.30;;
35442;SDS011;21561;55.654;37.592;2022-12-29T03:58:10;10.57;;;2.10;;
35442;SDS011;21561;55.654;37.592;2022-12-29T04:00:37;10.57;;;2.40;;
35442;SDS011;21561;55.654;37.592;2022-12-29T04:03:04;10.05;;;2.17;;
35442;SDS011;21561;55.654;37.592;2022-12-29T04:05:33;13.00;;;2.30;;
35442;SDS011;21561;55.654;37.592;2022-12-29T04:08:00;13.75;;;2.60;;
35442;SDS011;21561;55.654;37.592;2022-12-29T04:10:26;13.13;;;2.60;;
35442;SDS011;21561;55.654;37.592;2022-12-29T04:12:53;13.40;;;2.45;;
35442;SDS011;21561;55.654;37.592;2022-12-29T04:15:20;14.30;;;2.47;;
35442;SDS011;21561;55.654;37.592;2022-12-29T04:17:47;13.73;;;2.85;;
35442;SDS011;21561;55.654;37.592;2022-12-29T04:20:14;14.30;;;2.70;;
35442;SDS011;21561;55.654;37.592;2022-12-29T04:23:03;8.52;;;2.33;;
35442;SDS011;21561;55.654;37.592;2022-12-29T04:25:31;9.55;;;2.50;;
35442;SDS011;21561;55.654;37.592;2022-12-29T04:27:59;14.00;;;2.42;;
35442;SDS011;21561;55.654;37.592;2022-12-29T04:30:27;12.32;;;2.92;;
35442;SDS011;21561;55.654;37.592;2022-12-29T04:32:54;13.13;;;2.67;;
35442;SDS011;21561;55.654;37.592;2022-12-29T04:35:20;13.32;;;2.78;;
35442;SDS011;21561;55.654;37.592;2022-12-29T04:37:47;12.43;;;2.83;;
35442;SDS011;21561;55.654;37.592;2022-12-29T04:40:14;10.50;;;2.47;;
35442;SDS011;21561;55.654;37.592;2022-12-29T04:42:41;13.38;;;2.78;;
35442;SDS011;21561;55.654;37.592;2022-12-29T04:45:08;11.55;;;2.50;;
35442;SDS011;21561;55.654;37.592;2022-12-29T04:47:35;12.10;;;2.50;;
35442;SDS011;21561;55.654;37.592;2022-12-29T04:50:02;10.73;;;2.75;;
35442;SDS011;21561;55.654;37.592;2022-12-29T04:52:30;7.75;;;2.35;;
35442;SDS011;21561;55.654;37.592;2022-12-29T04:54:57;10.38;;;2.40;;
35442;SDS011;21561;55.654;37.592;2022-12-29T04:57:26;17.38;;;2.78;;
35442;SDS011;21561;55.654;37.592;2022-12-29T04:59:53;12.52;;;2.80;;
35442;SDS011;21561;55.654;37.592;2022-12-29T05:02:20;12.38;;;3.10;;
35442;SDS011;21561;55.654;37.592;2022-12-29T05:04:47;12.43;;;2.70;;
35442;SDS011;21561;55.654;37.592;2022-12-29T05:07:17;9.00;;;2.40;;
35442;SDS011;21561;55.654;37.592;2022-12-29T05:09:45;9.77;;;2.45;;
35442;SDS011;21561;55.654;37.592;2022-12-29T05:12:12;8.10;;;2.30;;
35442;SDS011;21561;55.654;37.592;2022-12-29T05:14:39;11.82;;;2.67;;
35442;SDS011;21561;55.654;37.592;2022-12-29T05:17:06;13.30;;;2.97;;
35442;SDS011;21561;55.654;37.592;2022-12-29T05:19:50;17.00;;;3.95;;
35442;SDS011;21561;55.654;37.592;2022-12-29T05:22:17;12.18;;;2.97;;
35442;SDS011;21561;55.654;37.592;2022-12-29T05:24:44;11.18;;;2.80;;
35442;SDS011;21561;55.654;37.592;2022-12-29T05:27:11;13.20;;;3.10;;
35442;SDS011;21561;55.654;37.592;2022-12-29T05:29:38;16.10;;;3.03;;
35442;SDS011;21561;55.654;37.592;2022-12-29T05:32:05;10.80;;;2.60;;
35442;SDS011;21561;55.654;37.592;2022-12-29T05:34:32;13.23;;;2.92;;
35442;SDS011;21561;55.654;37.592;2022-12-29T05:36:59;10.68;;;3.00;;
35442;SDS011;21561;55.654;37.592;2022-12-29T05:39:27;14.45;;;3.13;;
35442;SDS011;21561;55.654;37.592;2022-12-29T05:41:54;12.90;;;3.45;;
35442;SDS011;21561;55.654;37.592;2022-12-29T05:44:20;11.00;;;3.33;;
35442;SDS011;21561;55.654;37.592;2022-12-29T05:46:47;13.25;;;3.60;;
35442;SDS011;21561;55.654;37.592;2022-12-29T05:49:14;15.48;;;3.72;;
35442;SDS011;21561;55.654;37.592;2022-12-29T05:51:41;14.80;;;3.67;;
35442;SDS011;21561;55.654;37.592;2022-12-29T05:54:08;16.17;;;3.80;;
35442;SDS011;21561;55.654;37.592;2022-12-29T05:56:35;20.00;;;3.92;;
35442;SDS011;21561;55.654;37.592;2022-12-29T05:59:02;18.80;;;4.55;;
35442;SDS011;21561;55.654;37.592;2022-12-29T06:01:29;14.70;;;3.60;;
35442;SDS011;21561;55.654;37.592;2022-12-29T06:03:56;15.45;;;3.70;;
35442;SDS011;21561;55.654;37.592;2022-12-29T06:06:23;17.73;;;4.05;;
35442;SDS011;21561;55.654;37.592;2022-12-29T06:08:50;15.02;;;4.15;;
35442;SDS011;21561;55.654;37.592;2022-12-29T06:11:16;15.40;;;3.80;;
35442;SDS011;21561;55.654;37.592;2022-12-29T06:13:43;14.02;;;3.22;;
35442;SDS011;21561;55.654;37.592;2022-12-29T06:16:10;13.48;;;4.25;;
35442;SDS011;21561;55.654;37.592;2022-12-29T06:18:37;13.77;;;3.80;;
35442;SDS011;21561;55.654;37.592;2022-12-29T06:21:04;13.30;;;4.30;;
35442;SDS011;21561;55.654;37.592;2022-12-29T06:23:32;17.20;;;4.60;;
35442;SDS011;21561;55.654;37.592;2022-12-29T06:25:59;15.27;;;3.97;;
35442;SDS011;21561;55.654;37.592;2022-12-29T06:28:26;15.07;;;4.72;;
35442;SDS011;21561;55.654;37.592;2022-12-29T06:30:53;16.48;;;3.55;;
35442;SDS011;21561;55.654;37.592;2022-12-29T06:33:19;17.52;;;3.88;;
35442;SDS011;21561;55.654;37.592;2022-12-29T06:35:47;17.98;;;3.72;;
35442;SDS011;21561;55.654;37.592;2022-12-29T06:38:14;18.42;;;4.13;;
35442;SDS011;21561;55.654;37.592;2022-12-29T06:40:42;12.63;;;3.95;;
35442;SDS011;21561;55.654;37.592;2022-12-29T06:43:11;13.57;;;3.40;;
35442;SDS011;21561;55.654;37.592;2022-12-29T06:45:38;13.52;;;3.45;;
35442;SDS011;21561;55.654;37.592;2022-12-29T06:48:06;16.00;;;3.90;;
35442;SDS011;21561;55.654;37.592;2022-12-29T06:50:34;15.00;;;4.25;;
35442;SDS011;21561;55.654;37.592;2022-12-29T06:53:01;14.02;;;4.40;;
35442;SDS011;21561;55.654;37.592;2022-12-29T06:55:28;14.13;;;3.83;;
35442;SDS011;21561;55.654;37.592;2022-12-29T06:57:55;17.65;;;4.03;;
35442;SDS011;21561;55.654;37.592;2022-12-29T07:00:23;12.95;;;3.83;;
35442;SDS011;21561;55.654;37.592;2022-12-29T07:02:51;14.52;;;4.07;;
35442;SDS011;21561;55.654;37.592;2022-12-29T07:05:18;15.80;;;4.10;;
35442;SDS011;21561;55.654;37.592;2022-12-29T07:07:45;17.73;;;5.00;;
35442;SDS011;21561;55.654;37.592;2022-12-29T07:10:12;16.08;;;4.55;;
35442;SDS011;21561;55.654;37.592;2022-12-29T07:12:39;19.05;;;5.07;;
35442;SDS011;21561;55.654;37.592;2022-12-29T07:15:06;18.92;;;5.05;;
35442;SDS011;21561;55.654;37.592;2022-12-29T07:17:34;17.13;;;5.13;;
35442;SDS011;21561;55.654;37.592;2022-12-29T07:20:00;18.27;;;4.70;;
35442;SDS011;21561;55.654;37.592;2022-12-29T07:22:29;15.40;;;4.72;;
35442;SDS011;21561;55.654;37.592;2022-12-29T07:24:55;18.50;;;4.90;;
35442;SDS011;21561;55.654;37.592;2022-12-29T07:27:22;18.80;;;5.07;;
35442;SDS011;21561;55.654;37.592;2022-12-29T07:29:49;16.63;;;5.15;;
35442;SDS011;21561;55.654;37.592;2022-12-29T07:32:16;21.48;;;5.38;;
35442;SDS011;21561;55.654;37.592;2022-12-29T07:34:43;16.50;;;5.47;;
35442;SDS011;21561;55.654;37.592;2022-12-29T07:37:16;15.07;;;4.47;;
35442;SDS011;21561;55.654;37.592;2022-12-29T07:39:43;18.73;;;4.47;;
35442;SDS011;21561;55.654;37.592;2022-12-29T07:42:10;16.30;;;4.43;;
35442;SDS011;21561;55.654;37.592;2022-12-29T07:44:37;17.95;;;4.45;;
35442;SDS011;21561;55.654;37.592;2022-12-29T07:47:03;20.25;;;5.20;;
35442;SDS011;21561;55.654;37.592;2022-12-29T07:49:30;18.25;;;5.20;;
35442;SDS011;21561;55.654;37.592;2022-12-29T07:51:57;19.98;;;5.47;;
35442;SDS011;21561;55.654;37.592;2022-12-29T07:54:24;15.05;;;4.65;;
35442;SDS011;21561;55.654;37.592;2022-12-29T07:56:51;16.17;;;5.60;;
35442;SDS011;21561;55.654;37.592;2022-12-29T07:59:18;16.70;;;5.30;;
35442;SDS011;21561;55.654;37.592;2022-12-29T08:01:45;16.45;;;5.30;;
35442;SDS011;21561;55.654;37.592;2022-12-29T08:04:13;18.00;;;5.70;;
35442;SDS011;21561;55.654;37.592;2022-12-29T08:06:40;21.58;;;7.35;;
35442;SDS011;21561;55.654;37.592;2022-12-29T08:09:07;21.42;;;6.50;;
35442;SDS011;21561;55.654;37.592;2022-12-29T08:11:43;21.52;;;6.43;;
35442;SDS011;21561;55.654;37.592;2022-12-29T08:14:10;19.17;;;6.80;;
35442;SDS011;21561;55.654;37.592;2022-12-29T08:16:37;24.27;;;7.80;;
35442;SDS011;21561;55.654;37.592;2022-12-29T08:19:04;20.90;;;7.85;;
35442;SDS011;21561;55.654;37.592;2022-12-29T08:21:31;23.77;;;7.82;;
35442;SDS011;21561;55.654;37.592;2022-12-29T08:23:58;20.08;;;6.65;;
35442;SDS011;21561;55.654;37.592;2022-12-29T08:26:25;21.00;;;7.00;;
35442;SDS011;21561;55.654;37.592;2022-12-29T08:28:52;24.63;;;7.50;;
35442;SDS011;21561;55.654;37.592;2022-12-29T08:31:19;25.42;;;7.38;;
35442;SDS011;21561;55.654;37.592;2022-12-29T08:33:46;24.13;;;7.47;;
35442;SDS011;21561;55.654;37.592;2022-12-29T08:36:13;19.45;;;7.13;;
35442;SDS011;21561;55.654;37.592;2022-12-29T08:38:41;19.25;;;6.82;;
35442;SDS011;21561;55.654;37.592;2022-12-29T08:41:07;19.60;;;6.45;;
35442;SDS011;21561;55.654;37.592;2022-12-29T08:43:34;18.05;;;5.50;;
35442;SDS011;21561;55.654;37.592;2022-12-29T08:46:01;16.48;;;5.28;;
35442;SDS011;21561;55.654;37.592;2022-12-29T08:48:28;17.13;;;5.40;;
35442;SDS011;21561;55.654;37.592;2022-12-29T08:50:55;18.40;;;5.28;;
35442;SDS011;21561;55.654;37.592;2022-12-29T08:53:21;15.73;;;4.75;;
35442;SDS011;21561;55.654;37.592;2022-12-29T08:55:55;16.05;;;5.32;;
35442;SDS011;21561;55.654;37.592;2022-12-29T08:58:30;18.02;;;5.20;;
35442;SDS011;21561;55.654;37.592;2022-12-29T09:00:58;22.58;;;6.10;;
35442;SDS011;21561;55.654;37.592;2022-12-29T09:03:26;16.33;;;5.40;;
35442;SDS011;21561;55.654;37.592;2022-12-29T09:06:13;18.48;;;5.85;;
35442;SDS011;21561;55.654;37.592;2022-12-29T09:08:41;19.42;;;5.47;;
35442;SDS011;21561;55.654;37.592;2022-12-29T09:11:12;18.85;;;5.65;;
35442;SDS011;21561;55.654;37.592;2022-12-29T09:13:42;23.58;;;7.70;;
35442;SDS011;21561;55.654;37.592;2022-12-29T09:16:09;15.25;;;5.60;;
35442;SDS011;21561;55.654;37.592;2022-12-29T09:18:36;17.77;;;5.30;;
35442;SDS011;21561;55.654;37.592;2022-12-29T09:21:04;23.45;;;5.90;;
35442;SDS011;21561;55.654;37.592;2022-12-29T09:23:33;19.75;;;6.00;;
35442;SDS011;21561;55.654;37.592;2022-12-29T09:26:00;19.38;;;5.55;;
35442;SDS011;21561;55.654;37.592;2022-12-29T09:28:27;14.68;;;5.10;;
35442;SDS011;21561;55.654;37.592;2022-12-29T09:30:55;18.13;;;5.60;;
35442;SDS011;21561;55.654;37.592;2022-12-29T09:33:23;18.58;;;5.70;;
35442;SDS011;21561;55.654;37.592;2022-12-29T09:35:51;17.60;;;6.03;;
35442;SDS011;21561;55.654;37.592;2022-12-29T09:38:19;23.48;;;6.40;;
35442;SDS011;21561;55.654;37.592;2022-12-29T09:40:51;20.23;;;5.60;;
35442;SDS011;21561;55.654;37.592;2022-12-29T09:45:57;17.27;;;5.90;;
35442;SDS011;21561;55.654;37.592;2022-12-29T09:48:30;15.45;;;4.95;;
35442;SDS011;21561;55.654;37.592;2022-12-29T09:51:05;23.48;;;5.72;;
35442;SDS011;21561;55.654;37.592;2022-12-29T09:53:39;18.98;;;5.60;;
35442;SDS011;21561;55.654;37.592;2022-12-29T09:56:17;20.75;;;5.65;;
35442;SDS011;21561;55.654;37.592;2022-12-29T10:01:44;18.30;;;4.95;;
35442;SDS011;21561;55.654;37.592;2022-12-29T10:04:18;17.42;;;4.82;;
35442;SDS011;21561;55.654;37.592;2022-12-29T10:06:46;16.27;;;4.45;;
35442;SDS011;21561;55.654;37.592;2022-12-29T10:18:14;20.70;;;5.97;;
35442;SDS011;21561;55.654;37.592;2022-12-29T10:23:53;15.75;;;5.47;;
35442;SDS011;21561;55.654;37.592;2022-12-29T10:26:29;19.35;;;6.13;;
35442;SDS011;21561;55.654;37.592;2022-12-29T10:29:02;20.70;;;6.03;;
35442;SDS011;21561;55.654;37.592;2022-12-29T10:34:06;19.35;;;6.00;;
35442;SDS011;21561;55.654;37.592;2022-12-29T10:36:43;16.88;;;5.80;;
35442;SDS011;21561;55.654;37.592;2022-12-29T10:39:18;20.00;;;6.07;;
35442;SDS011;21561;55.654;37.592;2022-12-29T10:44:42;17.95;;;6.15;;
35442;SDS011;21561;55.654;37.592;2022-12-29T10:47:14;20.45;;;6.07;;
35442;SDS011;21561;55.654;37.592;2022-12-29T10:49:44;19.70;;;8.00;;
35442;SDS011;21561;55.654;37.592;2022-12-29T10:52:14;20.10;;;7.68;;
35442;SDS011;21561;55.654;37.592;2022-12-29T10:57:32;22.77;;;7.38;;
35442;SDS011;21561;55.654;37.592;2022-12-29T11:00:10;16.58;;;6.45;;
35442;SDS011;21561;55.654;37.592;2022-12-29T11:02:57;21.08;;;6.90;;
35442;SDS011;21561;55.654;37.592;2022-12-29T11:08:18;17.75;;;5.75;;
35442;SDS011;21561;55.654;37.592;2022-12-29T11:11:02;15.68;;;5.50;;
35442;SDS011;21561;55.654;37.592;2022-12-29T11:14:19;18.65;;;5.38;;
35442;SDS011;21561;55.654;37.592;2022-12-29T11:16:36;17.23;;;5.78;;
35442;SDS011;21561;55.654;37.592;2022-12-29T11:19:03;16.35;;;6.32;;
35442;SDS011;21561;55.654;37.592;2022-12-29T11:21:35;19.70;;;6.43;;
35442;SDS011;21561;55.654;37.592;2022-12-29T11:24:20;18.52;;;5.90;;
35442;SDS011;21561;55.654;37.592;2022-12-29T11:26:53;16.27;;;6.00;;
35442;SDS011;21561;55.654;37.592;2022-12-29T11:29:27;17.80;;;5.53;;
35442;SDS011;21561;55.654;37.592;2022-12-29T11:32:10;16.15;;;5.82;;
35442;SDS011;21561;55.654;37.592;2022-12-29T11:34:53;16.48;;;5.63;;
35442;SDS011;21561;55.654;37.592;2022-12-29T11:37:30;24.25;;;9.63;;
35442;SDS011;21561;55.654;37.592;2022-12-29T11:40:06;17.98;;;6.30;;
35442;SDS011;21561;55.654;37.592;2022-12-29T11:42:53;17.02;;;5.55;;
35442;SDS011;21561;55.654;37.592;2022-12-29T11:45:26;18.08;;;5.55;;
35442;SDS011;21561;55.654;37.592;2022-12-29T11:48:00;19.98;;;5.93;;
35442;SDS011;21561;55.654;37.592;2022-12-29T11:50:33;16.35;;;6.00;;
35442;SDS011;21561;55.654;37.592;2022-12-29T11:53:14;18.83;;;5.75;;
35442;SDS011;21561;55.654;37.592;2022-12-29T11:55:53;19.90;;;6.70;;
35442;SDS011;21561;55.654;37.592;2022-12-29T11:58:28;16.20;;;5.43;;
35442;SDS011;21561;55.654;37.592;2022-12-29T12:01:02;18.23;;;6.00;;
35442;SDS011;21561;55.654;37.592;2022-12-29T12:03:31;15.35;;;5.10;;
35442;SDS011;21561;55.654;37.592;2022-12-29T12:06:03;17.58;;;5.60;;
35442;SDS011;21561;55.654;37.592;2022-12-29T12:08:35;15.85;;;5.07;;
35442;SDS011;21561;55.654;37.592;2022-12-29T12:11:23;14.77;;;4.88;;
35442;SDS011;21561;55.654;37.592;2022-12-29T12:14:00;14.35;;;4.60;;
35442;SDS011;21561;55.654;37.592;2022-12-29T12:16:40;18.73;;;5.55;;
35442;SDS011;21561;55.654;37.592;2022-12-29T12:19:15;17.13;;;5.25;;
35442;SDS011;21561;55.654;37.592;2022-12-29T12:22:12;19.30;;;5.65;;
35442;SDS011;21561;55.654;37.592;2022-12-29T12:27:31;17.83;;;5.72;;
35442;SDS011;21561;55.654;37.592;2022-12-29T12:35:41;19.45;;;6.10;;
35442;SDS011;21561;55.654;37.592;2022-12-29T12:52:58;20.38;;;6.72;;
35442;SDS011;21561;55.654;37.592;2022-12-29T13:06:18;25.30;;;8.75;;
35442;SDS011;21561;55.654;37.592;2022-12-29T13:15:20;27.80;;;9.20;;
35442;SDS011;21561;55.654;37.592;2022-12-29T13:20:54;27.85;;;9.57;;
35442;SDS011;21561;55.654;37.592;2022-12-29T13:26:12;28.20;;;8.52;;
35442;SDS011;21561;55.654;37.592;2022-12-29T13:37:17;24.45;;;8.30;;
35442;SDS011;21561;55.654;37.592;2022-12-29T13:40:03;23.95;;;8.45;;
35442;SDS011;21561;55.654;37.592;2022-12-29T13:42:39;27.15;;;9.30;;
35442;SDS011;21561;55.654;37.592;2022-12-29T13:45:18;26.33;;;9.02;;
35442;SDS011;21561;55.654;37.592;2022-12-29T13:47:55;25.58;;;9.10;;
35442;SDS011;21561;55.654;37.592;2022-12-29T13:50:29;25.65;;;9.00;;
35442;SDS011;21561;55.654;37.592;2022-12-29T13:56:12;28.75;;;8.95;;
35442;SDS011;21561;55.654;37.592;2022-12-29T14:01:34;27.35;;;9.68;;
35442;SDS011;21561;55.654;37.592;2022-12-29T14:04:11;29.83;;;9.80;;
35442;SDS011;21561;55.654;37.592;2022-12-29T14:06:47;33.47;;;11.93;;
35442;SDS011;21561;55.654;37.592;2022-12-29T14:12:21;33.20;;;11.25;;
35442;SDS011;21561;55.654;37.592;2022-12-29T14:17:37;32.30;;;11.82;;
35442;SDS011;21561;55.654;37.592;2022-12-29T14:20:17;31.23;;;10.38;;
35442;SDS011;21561;55.654;37.592;2022-12-29T14:28:26;30.20;;;10.02;;
35442;SDS011;21561;55.654;37.592;2022-12-29T14:31:01;29.77;;;9.52;;
35442;SDS011;21561;55.654;37.592;2022-12-29T14:33:30;30.90;;;10.73;;
35442;SDS011;21561;55.654;37.592;2022-12-29T14:38:47;33.03;;;10.82;;
35442;SDS011;21561;55.654;37.592;2022-12-29T14:41:24;33.33;;;11.23;;
35442;SDS011;21561;55.654;37.592;2022-12-29T14:44:17;35.35;;;11.40;;
35442;SDS011;21561;55.654;37.592;2022-12-29T14:46:55;28.05;;;10.55;;
35442;SDS011;21561;55.654;37.592;2022-12-29T14:49:33;34.17;;;11.43;;
35442;SDS011;21561;55.654;37.592;2022-12-29T14:52:14;30.23;;;10.45;;
35442;SDS011;21561;55.654;37.592;2022-12-29T14:59:54;31.23;;;11.35;;
35442;SDS011;21561;55.654;37.592;2022-12-29T15:02:34;29.05;;;10.20;;
35442;SDS011;21561;55.654;37.592;2022-12-29T15:05:10;31.27;;;11.30;;
35442;SDS011;21561;55.654;37.592;2022-12-29T15:07:52;35.72;;;11.40;;
35442;SDS011;21561;55.654;37.592;2022-12-29T15:10:20;40.53;;;12.38;;
35442;SDS011;21561;55.654;37.592;2022-12-29T15:12:53;33.45;;;12.40;;
35442;SDS011;21561;55.654;37.592;2022-12-29T15:15:23;38.78;;;11.38;;
35442;SDS011;21561;55.654;37.592;2022-12-29T15:17:53;38.63;;;12.30;;
35442;SDS011;21561;55.654;37.592;2022-12-29T15:20:29;32.85;;;12.10;;
35442;SDS011;21561;55.654;37.592;2022-12-29T15:22:59;38.03;;;12.90;;
35442;SDS011;21561;55.654;37.592;2022-12-29T15:25:29;37.85;;;12.45;;
35442;SDS011;21561;55.654;37.592;2022-12-29T15:28:01;31.48;;;12.25;;
35442;SDS011;21561;55.654;37.592;2022-12-29T15:30:30;33.72;;;12.48;;
35442;SDS011;21561;55.654;37.592;2022-12-29T15:32:57;42.03;;;12.88;;
35442;SDS011;21561;55.654;37.592;2022-12-29T15:35:32;45.05;;;13.77;;
35442;SDS011;21561;55.654;37.592;2022-12-29T15:38:16;40.28;;;13.48;;
35442;SDS011;21561;55.654;37.592;2022-12-29T15:41:02;42.97;;;13.23;;
35442;SDS011;21561;55.654;37.592;2022-12-29T15:46:12;44.30;;;14.40;;
35442;SDS011;21561;55.654;37.592;2022-12-29T15:48:40;43.08;;;13.55;;
35442;SDS011;21561;55.654;37.592;2022-12-29T15:51:14;41.00;;;15.20;;
35442;SDS011;21561;55.654;37.592;2022-12-29T15:53:48;40.38;;;14.38;;
35442;SDS011;21561;55.654;37.592;2022-12-29T15:56:18;46.90;;;14.93;;
35442;SDS011;21561;55.654;37.592;2022-12-29T15:58:46;45.00;;;14.68;;
35442;SDS011;21561;55.654;37.592;2022-12-29T16:03:54;41.28;;;13.75;;
35442;SDS011;21561;55.654;37.592;2022-12-29T16:11:42;36.97;;;13.00;;
35442;SDS011;21561;55.654;37.592;2022-12-29T16:14:21;44.63;;;14.68;;
35442;SDS011;21561;55.654;37.592;2022-12-29T16:17:01;43.25;;;15.75;;
35442;SDS011;21561;55.654;37.592;2022-12-29T16:19:34;48.45;;;15.25;;
35442;SDS011;21561;55.654;37.592;2022-12-29T16:22:09;47.10;;;13.95;;
35442;SDS011;21561;55.654;37.592;2022-12-29T16:24:39;47.00;;;14.77;;
35442;SDS011;21561;55.654;37.592;2022-12-29T16:27:07;53.83;;;15.55;;
35442;SDS011;21561;55.654;37.592;2022-12-29T16:29:40;47.63;;;16.05;;
35442;SDS011;21561;55.654;37.592;2022-12-29T16:32:22;46.83;;;15.68;;
35442;SDS011;21561;55.654;37.592;2022-12-29T16:35:38;47.20;;;14.57;;
35442;SDS011;21561;55.654;37.592;2022-12-29T16:40:57;55.85;;;17.30;;
35442;SDS011;21561;55.654;37.592;2022-12-29T16:43:32;49.35;;;17.13;;
35442;SDS011;21561;55.654;37.592;2022-12-29T16:48:28;52.13;;;17.10;;
35442;SDS011;21561;55.654;37.592;2022-12-29T16:51:15;55.20;;;16.75;;
35442;SDS011;21561;55.654;37.592;2022-12-29T16:53:53;48.13;;;15.07;;
35442;SDS011;21561;55.654;37.592;2022-12-29T16:56:21;47.97;;;16.23;;
35442;SDS011;21561;55.654;37.592;2022-12-29T17:01:52;49.28;;;16.50;;
35442;SDS011;21561;55.654;37.592;2022-12-29T17:04:22;48.92;;;15.40;;
35442;SDS011;21561;55.654;37.592;2022-12-29T17:06:48;51.40;;;15.55;;
35442;SDS011;21561;55.654;37.592;2022-12-29T17:09:20;43.55;;;14.55;;
35442;SDS011;21561;55.654;37.592;2022-12-29T17:11:52;50.80;;;15.95;;
35442;SDS011;21561;55.654;37.592;2022-12-29T17:17:09;47.70;;;15.40;;
35442;SDS011;21561;55.654;37.592;2022-12-29T17:19:40;47.13;;;15.88;;
35442;SDS011;21561;55.654;37.592;2022-12-29T17:22:24;51.72;;;16.70;;
35442;SDS011;21561;55.654;37.592;2022-12-29T17:24:53;45.88;;;16.10;;
35442;SDS011;21561;55.654;37.592;2022-12-29T17:29:51;52.45;;;16.70;;
35442;SDS011;21561;55.654;37.592;2022-12-29T17:32:22;47.80;;;16.73;;
35442;SDS011;21561;55.654;37.592;2022-12-29T17:34:49;44.05;;;15.82;;
35442;SDS011;21561;55.654;37.592;2022-12-29T17:39:56;46.45;;;16.58;;
35442;SDS011;21561;55.654;37.592;2022-12-29T17:42:23;50.80;;;16.92;;
35442;SDS011;21561;55.654;37.592;2022-12-29T17:44:50;44.90;;;16.95;;
35442;SDS011;21561;55.654;37.592;2022-12-29T17:47:19;49.42;;;16.42;;
35442;SDS011;21561;55.654;37.592;2022-12-29T17:49:46;49.72;;;15.95;;